Crowley, Colorado
Current Conditions -  °F | °C
As of 6:53 PM on Tuesday 21 Oct 2014 (Local Time) from KLHX Reporting Station
Clear Clear  
Wind Chill: 67°   Ceiling: Unl
Heat Index: 67°   Visibility: 10mi
Dew Point: 44°   Wind: 9mph
Humidity: 44%   Direction: 170°S
Pressure: 29.91"   Gusts: NA
Location:  38.19°N, 103.86°W
Report Text: KLHX 220053Z AUTO 17008KT 10SM CLR 19/07 A2991 RMK AO2 SLP092 T01940067
Loading
Personal Weather Stations






























Interactive Weather Map
Tropical Storm Tracking
New forecast layout! Learn more

10-Day Weather Forecast

Advertisements
Track Severe Weather on mobile